Avoca, PA

2:53 AM EST on February 09, 2016 (GMT -0500)
West Wyoming | | Change Station
CLOSE
Current Station
Personal Weather Station
Location: Wyoming, PA
Elevation: 745 ft
Nearby Weather Stations

Elev 745 ft 41.32 °N, 75.85 °W | Updated 14 minutes ago

Light Snow
Light Snow
28.2 °F
Feels Like 28 °F
N
0.0
Wind Variable Wind from South

Today
High -- | Low -- °F
--% Chance of Precip.
Yesterday
High -- | Low -- °F
Precip. -- in
Pressure 29.64 in
Visibility 4.0 miles
Clouds Few 1800 ft
Mostly Cloudy 3500 ft
Overcast 4600 ft
Windchill 28 °F
Dew Point 26 °F
Humidity 90%
Rainfall 0.00 in
Snow Depth Not available.
7:06 AM 5:28 PM
New Moon, 1% visible
METAR KAVP 090654Z AUTO 00000KT 4SM -SN FEW018 BKN035 OVC046 M02/M06 A2962 RMK AO2 SLP037 P0000 T10221056
Pressure 29.64 in
Visibility 4.0 miles
Clouds Few 1800 ft
Mostly Cloudy 3500 ft
Overcast 4600 ft
Windchill 28 °F
Dew Point 26 °F
Humidity 90%
Rainfall 0.00 in
Snow Depth Not available.
7:06 AM 5:28 PM
New Moon, 1% visible
METAR KAVP 090654Z AUTO 00000KT 4SM -SN FEW018 BKN035 OVC046 M02/M06 A2962 RMK AO2 SLP037 P0000 T10221056

10-Day Weather Forecast

Almanac

Astronomy

Feb. 09, 2016 Rise Set
Actual Time
Civil Twilight
Nautical Twilight
Astronomical Twilight
Moon
Length of Visible Light
Length of Day
Tomorrow will be .
, % of the Moon is Illuminated

Today's Extremes

State Highs State Lows

Community

WunderPhotos

Upload Photos

1,891,571 photos uploaded!

WunderBlog® & News

Nearby

Air Quality

  Air Quality AQ Index Pollutant
Not available.

Snow Depth

Station Depth Elevation

Earthquake Activity

City Distance Mag. Time & Date
Minimum magnitude displayed is 2.5.

Coastal Water Temperatures

Place Temperature

Stations

Nearby Weather Stations

Station Location Temp. Windchill Dew Point Humidity Wind Precip. Elev Updated Type
                   

Watches & Warnings

There are currently no watches in effect.